Time;durP1;ratioP1;P1;durP2;ratioP2;P2;SDS_P1;SDS_P2;PMS_P1;PMS_P2;Temp;Humidity;BMP_temperature;BMP_pressure;BME280_temperature;BME280_humidity;BME280_pressure;Samples;Min_cycle;Max_cycle;Signal;HPM_P1;HPM_P2
2021/10/07 00:03:40;;;;;;;1.20;0.80;;;17.30;76.60;;;;;;10459256;28;20205;-70
2021/10/07 00:09:04;;;;;;;0.80;0.50;;;17.30;76.50;;;;;;10448395;28;20226;-70
2021/10/07 00:14:26;;;;;;;0.50;0.50;;;17.20;76.30;;;;;;10422575;28;20201;-70
2021/10/07 00:19:50;;;;;;;1.17;0.73;;;17.30;76.30;;;;;;10466274;22;20734;-64
2021/10/07 00:25:14;;;;;;;0.53;0.50;;;17.30;76.40;;;;;;10409520;28;20213;-65
2021/10/07 00:30:37;;;;;;;1.93;0.60;;;17.30;76.40;;;;;;10410272;28;20568;-65
2021/10/07 00:36:11;;;;;;;1.20;0.70;;;17.20;76.30;;;;;;10410575;28;20189;-65
2021/10/07 00:41:35;;;;;;;1.23;0.60;;;17.30;76.20;;;;;;10409034;28;20572;-65
2021/10/07 00:46:59;;;;;;;0.60;0.60;;;17.20;76.20;;;;;;10410316;28;20194;-65
2021/10/07 00:52:23;;;;;;;2.00;0.67;;;17.20;76.10;;;;;;10446904;28;20202;-64
2021/10/07 00:57:47;;;;;;;0.80;0.67;;;17.20;76.10;;;;;;10415703;28;20213;-62
2021/10/07 01:03:09;;;;;;;0.63;0.50;;;17.20;76.00;;;;;;10424640;28;20201;-65
2021/10/07 01:08:33;;;;;;;0.67;0.40;;;17.20;75.90;;;;;;10440615;28;20224;-65
2021/10/07 01:13:56;;;;;;;0.90;0.70;;;17.30;75.90;;;;;;10449733;28;20200;-64
2021/10/07 01:19:18;;;;;;;0.90;0.50;;;17.20;75.80;;;;;;10448628;28;20220;-65
2021/10/07 01:24:41;;;;;;;0.57;0.40;;;17.20;75.80;;;;;;10450786;28;20201;-65
2021/10/07 01:30:07;;;;;;;0.63;0.43;;;17.30;75.80;;;;;;10432966;28;20221;-64
2021/10/07 01:35:29;;;;;;;0.50;0.50;;;17.20;75.80;;;;;;10408882;28;20394;-64
2021/10/07 01:40:53;;;;;;;2.43;0.60;;;17.20;75.70;;;;;;10407820;28;20424;-64
2021/10/07 01:46:15;;;;;;;0.90;0.60;;;17.20;75.70;;;;;;10408763;28;20563;-64
2021/10/07 01:51:37;;;;;;;1.90;0.70;;;17.20;75.70;;;;;;10418179;28;20228;-64
2021/10/07 01:57:01;;;;;;;1.43;0.60;;;17.20;75.60;;;;;;10443060;28;20200;-64
2021/10/07 02:02:23;;;;;;;0.60;0.60;;;17.20;75.50;;;;;;10454566;28;20200;-61
2021/10/07 02:07:45;;;;;;;0.73;0.50;;;17.20;75.50;;;;;;10458696;28;20224;-65
2021/10/07 02:13:09;;;;;;;0.67;0.43;;;17.20;75.50;;;;;;10438221;28;20198;-62
2021/10/07 02:18:31;;;;;;;0.87;0.47;;;17.20;75.50;;;;;;10414403;28;20228;-64
2021/10/07 02:23:54;;;;;;;0.73;0.53;;;17.20;75.50;;;;;;10447933;28;20203;-64
2021/10/07 02:29:18;;;;;;;0.83;0.53;;;17.20;76.10;;;;;;10454842;28;20224;-65
2021/10/07 02:34:40;;;;;;;1.90;0.67;;;17.20;75.50;;;;;;10454213;28;20194;-65
2021/10/07 02:40:02;;;;;;;1.17;0.53;;;17.20;75.50;;;;;;10454574;28;20714;-64
2021/10/07 02:45:26;;;;;;;1.60;0.40;;;17.20;75.50;;;;;;10454815;28;20662;-62
2021/10/07 02:50:48;;;;;;;0.50;0.50;;;17.20;75.40;;;;;;10438480;28;20232;-64
2021/10/07 02:56:11;;;;;;;0.77;0.40;;;17.20;75.40;;;;;;10453195;28;20540;-63
2021/10/07 03:01:34;;;;;;;0.50;0.40;;;17.20;75.50;;;;;;10433746;28;20599;-63
2021/10/07 03:06:56;;;;;;;0.57;0.50;;;17.20;75.30;;;;;;10412671;28;20215;-64
2021/10/07 03:12:19;;;;;;;0.57;0.50;;;17.20;75.30;;;;;;10413513;28;20217;-65
2021/10/07 03:17:42;;;;;;;0.47;0.40;;;17.20;75.20;;;;;;10413429;28;20245;-65
2021/10/07 03:23:05;;;;;;;0.70;0.70;;;17.20;75.10;;;;;;10413342;28;20199;-64
2021/10/07 03:28:27;;;;;;;1.30;0.50;;;17.20;75.20;;;;;;10413173;28;20710;-64
2021/10/07 03:33:51;;;;;;;0.50;0.50;;;17.20;75.20;;;;;;10427642;28;20193;-64
2021/10/07 03:39:13;;;;;;;1.13;0.53;;;17.20;75.10;;;;;;10451869;28;20236;-63
2021/10/07 03:44:35;;;;;;;1.07;0.50;;;17.20;75.20;;;;;;10435163;28;20204;-63
2021/10/07 03:49:59;;;;;;;0.90;0.50;;;17.10;75.10;;;;;;10450370;28;20594;-65
2021/10/07 03:55:21;;;;;;;0.80;0.40;;;17.10;75.10;;;;;;10452398;28;20193;-65
2021/10/07 04:00:43;;;;;;;0.50;0.40;;;17.10;75.00;;;;;;10451773;28;20216;-64
2021/10/07 04:06:07;;;;;;;3.20;0.70;;;17.20;75.10;;;;;;10451622;28;20582;-65
2021/10/07 04:11:29;;;;;;;1.03;0.60;;;17.20;75.10;;;;;;10419999;28;20221;-65
2021/10/07 04:16:51;;;;;;;1.40;0.57;;;17.20;75.10;;;;;;10430985;28;20208;-64
2021/10/07 04:22:15;;;;;;;0.80;0.60;;;17.10;75.10;;;;;;10450505;28;20197;-63
2021/10/07 04:27:37;;;;;;;1.00;0.50;;;17.10;75.20;;;;;;10448736;28;20560;-65
2021/10/07 04:32:59;;;;;;;2.10;0.43;;;17.10;74.90;;;;;;10450470;28;20196;-64
2021/10/07 04:38:23;;;;;;;2.57;0.60;;;17.10;74.80;;;;;;10448641;28;20710;-64
2021/10/07 04:43:46;;;;;;;1.70;0.50;;;17.20;74.90;;;;;;10434081;28;20194;-64
2021/10/07 04:49:08;;;;;;;0.87;0.50;;;17.10;74.70;;;;;;10410854;28;20217;-65
2021/10/07 04:54:32;;;;;;;1.30;0.60;;;17.10;74.80;;;;;;10410869;28;20694;-66
2021/10/07 04:59:54;;;;;;;0.90;0.60;;;17.10;74.60;;;;;;10408266;28;20214;-65
2021/10/07 05:05:16;;;;;;;0.63;0.43;;;17.10;74.60;;;;;;10410105;28;20202;-66
2021/10/07 05:10:40;;;;;;;1.10;0.57;;;17.10;74.60;;;;;;10416694;28;20221;-62
2021/10/07 05:16:03;;;;;;;0.73;0.50;;;17.10;74.50;;;;;;10429039;28;20209;-63
2021/10/07 05:21:25;;;;;;;1.07;0.60;;;17.10;74.60;;;;;;10409240;28;20225;-64
2021/10/07 05:26:48;;;;;;;1.00;0.80;;;17.10;74.40;;;;;;10410190;28;20207;-63
2021/10/07 05:32:11;;;;;;;0.80;0.60;;;17.20;74.50;;;;;;10442314;28;20216;-60
2021/10/07 05:37:34;;;;;;;1.00;0.70;;;17.10;74.40;;;;;;10408791;28;20220;-62
2021/10/07 05:42:57;;;;;;;1.00;0.50;;;17.10;74.50;;;;;;10408780;28;20224;-61
2021/10/07 05:48:19;;;;;;;0.87;0.70;;;17.10;74.50;;;;;;10424272;28;20217;-60
2021/10/07 05:53:41;;;;;;;0.90;0.60;;;17.20;74.50;;;;;;10448372;28;20188;-63
2021/10/07 05:59:05;;;;;;;2.37;0.80;;;17.10;74.60;;;;;;10441141;28;20236;-62
2021/10/07 06:04:27;;;;;;;0.67;0.60;;;17.10;74.40;;;;;;10422086;28;20194;-62
2021/10/07 06:09:49;;;;;;;2.63;1.00;;;17.10;74.30;;;;;;10414249;28;20225;-62
2021/10/07 06:15:13;;;;;;;1.17;0.80;;;17.10;74.40;;;;;;10443203;28;20792;-64
2021/10/07 06:20:36;;;;;;;1.53;0.70;;;17.10;74.40;;;;;;10437920;22;20228;-61
2021/10/07 06:25:58;;;;;;;1.63;0.67;;;17.10;74.40;;;;;;10439769;28;20247;-61
2021/10/07 06:31:22;;;;;;;1.80;0.70;;;17.10;74.40;;;;;;10439665;28;20566;-61
2021/10/07 06:36:44;;;;;;;1.93;0.70;;;17.10;75.00;;;;;;10445359;28;20630;-62
2021/10/07 06:42:06;;;;;;;0.90;0.60;;;17.10;74.40;;;;;;10448770;28;20570;-62
2021/10/07 06:47:30;;;;;;;0.63;0.60;;;17.10;74.50;;;;;;10423451;28;20793;-60
2021/10/07 06:52:52;;;;;;;3.17;0.87;;;17.40;74.10;;;;;;10428645;28;20232;-59
2021/10/07 06:58:16;;;;;;;1.03;0.60;;;17.30;74.20;;;;;;10428622;28;20221;-58
2021/10/07 07:03:39;;;;;;;0.83;0.80;;;17.20;74.80;;;;;;10415776;28;20194;-59
2021/10/07 07:09:02;;;;;;;1.20;0.60;;;17.20;75.00;;;;;;10422714;28;20287;-61
2021/10/07 07:14:24;;;;;;;1.33;0.70;;;17.20;75.30;;;;;;10419691;28;21421;-62
2021/10/07 07:19:48;;;;;;;0.93;0.67;;;17.10;75.60;;;;;;10424760;28;20721;-59
2021/10/07 07:25:11;;;;;;;0.90;0.73;;;17.10;75.60;;;;;;10432710;28;20201;-61
2021/10/07 07:30:33;;;;;;;2.60;0.53;;;17.10;75.70;;;;;;10440023;28;20264;-60
2021/10/07 07:35:57;;;;;;;1.17;0.80;;;17.10;75.80;;;;;;10427502;28;20204;-61
2021/10/07 07:41:20;;;;;;;2.00;0.80;;;17.10;75.80;;;;;;10448253;28;20216;-61
2021/10/07 07:46:42;;;;;;;1.73;0.80;;;17.20;75.90;;;;;;10432616;28;20205;-57
2021/10/07 07:52:06;;;;;;;1.53;0.70;;;17.10;76.10;;;;;;10447890;28;20231;-61
2021/10/07 07:57:28;;;;;;;0.93;0.57;;;17.20;76.20;;;;;;10446124;28;20210;-62
2021/10/07 08:02:50;;;;;;;0.70;0.53;;;17.20;76.30;;;;;;10410407;28;20276;-62
2021/10/07 08:08:14;;;;;;;1.10;0.80;;;17.10;76.20;;;;;;10429977;28;20213;-59
2021/10/07 08:13:36;;;;;;;1.33;0.57;;;17.20;76.00;;;;;;10439514;28;20671;-61
2021/10/07 08:18:58;;;;;;;1.67;0.70;;;17.20;76.00;;;;;;10431123;28;20564;-58
2021/10/07 08:24:22;;;;;;;1.03;0.60;;;17.20;76.10;;;;;;10440104;28;20205;-62
2021/10/07 08:29:45;;;;;;;1.30;0.93;;;17.20;76.10;;;;;;10445996;28;20221;-61
2021/10/07 08:35:08;;;;;;;1.90;0.83;;;17.20;76.30;;;;;;10441332;28;20663;-61
2021/10/07 08:40:32;;;;;;;0.60;0.50;;;17.20;76.30;;;;;;10440671;28;20218;-63
2021/10/07 08:45:55;;;;;;;1.47;0.70;;;17.20;76.30;;;;;;10424650;28;20786;-61
2021/10/07 08:51:17;;;;;;;0.60;0.50;;;17.20;76.50;;;;;;10448931;28;20221;-63
2021/10/07 08:56:41;;;;;;;0.90;0.80;;;17.20;76.50;;;;;;10446898;28;20204;-57
2021/10/07 09:02:07;;;;;;;0.97;0.70;;;17.20;76.60;;;;;;10428199;28;20220;-57
2021/10/07 09:07:29;;;;;;;2.20;0.63;;;17.20;76.60;;;;;;10415108;28;20213;-58
2021/10/07 09:13:07;;;;;;;2.40;0.83;;;17.20;76.70;;;;;;10429763;28;20217;-57
2021/10/07 09:18:32;;;;;;;1.10;0.67;;;17.20;76.70;;;;;;10420679;28;20233;-59
2021/10/07 09:23:54;;;;;;;2.00;0.80;;;17.20;76.80;;;;;;10421489;28;20232;-57
2021/10/07 09:29:18;;;;;;;0.83;0.57;;;17.20;77.00;;;;;;10448543;28;20217;-60
2021/10/07 09:34:47;;;;;;;1.10;0.70;;;17.20;77.10;;;;;;10430856;28;20204;-64
2021/10/07 09:40:12;;;;;;;0.80;0.53;;;17.20;77.20;;;;;;10448527;28;20697;-60
2021/10/07 09:45:35;;;;;;;0.93;0.50;;;17.20;77.30;;;;;;10413873;28;20200;-60
2021/10/07 09:50:58;;;;;;;0.87;0.60;;;17.20;77.30;;;;;;10441611;28;20225;-60
2021/10/07 09:56:30;;;;;;;1.00;0.53;;;17.20;77.30;;;;;;10415310;28;20205;-60
2021/10/07 10:01:55;;;;;;;2.73;0.60;;;17.20;77.30;;;;;;10436816;28;20289;-58
2021/10/07 10:07:18;;;;;;;1.50;0.50;;;17.20;77.30;;;;;;10411174;28;20305;-64
2021/10/07 10:12:41;;;;;;;0.50;0.50;;;17.20;77.40;;;;;;10408137;28;20598;-61
2021/10/07 10:18:08;;;;;;;0.77;0.60;;;17.20;77.30;;;;;;10407117;28;20694;-61
2021/10/07 10:23:32;;;;;;;1.10;0.60;;;17.20;77.50;;;;;;10416601;28;20685;-59
2021/10/07 10:28:54;;;;;;;0.80;0.60;;;17.20;77.50;;;;;;10414335;28;20225;-57
2021/10/07 10:34:20;;;;;;;1.20;0.60;;;17.10;77.60;;;;;;10414133;28;20596;-60
2021/10/07 10:39:47;;;;;;;2.73;0.70;;;17.10;77.70;;;;;;10414071;28;20710;-61
2021/10/07 10:45:09;;;;;;;1.23;0.70;;;17.10;77.70;;;;;;10418731;28;20201;-62
2021/10/07 10:50:33;;;;;;;1.17;0.67;;;17.10;77.50;;;;;;10413756;28;20240;-60
2021/10/07 10:55:55;;;;;;;0.83;0.50;;;17.10;77.70;;;;;;10415386;28;20213;-61
2021/10/07 11:01:17;;;;;;;0.87;0.50;;;17.20;77.70;;;;;;10412746;28;20214;-62
2021/10/07 11:07:18;;;;;;;0.97;0.63;;;17.10;77.70;;;;;;10414730;28;20212;-63
2021/10/07 11:12:52;;;;;;;1.40;0.73;;;17.20;77.60;;;;;;10416049;28;20301;-62
2021/10/07 11:18:14;;;;;;;0.70;0.60;;;17.20;77.80;;;;;;10412785;28;20240;-61
2021/10/07 11:23:38;;;;;;;0.83;0.70;;;17.20;77.80;;;;;;10433195;28;20197;-62
2021/10/07 11:29:00;;;;;;;0.53;0.40;;;17.10;77.90;;;;;;10416744;28;20868;-61
2021/10/07 11:34:22;;;;;;;0.57;0.50;;;17.20;78.10;;;;;;10420815;28;20702;-61
2021/10/07 11:39:46;;;;;;;0.83;0.47;;;17.20;78.10;;;;;;10411995;28;20214;-61
2021/10/07 11:45:19;;;;;;;1.20;0.40;;;17.20;78.00;;;;;;10450214;28;20200;-65
2021/10/07 11:50:43;;;;;;;0.97;0.53;;;17.20;77.80;;;;;;10441027;28;20221;-64
2021/10/07 11:56:13;;;;;;;0.50;0.40;;;17.20;77.60;;;;;;10415659;28;20193;-61
2021/10/07 12:01:37;;;;;;;1.50;0.60;;;17.20;77.50;;;;;;10411558;28;20217;-61
2021/10/07 12:06:59;;;;;;;0.43;0.43;;;17.20;77.30;;;;;;10435328;28;20200;-61
2021/10/07 12:12:22;;;;;;;1.13;0.50;;;17.30;77.40;;;;;;10416323;28;20226;-65
2021/10/07 12:17:45;;;;;;;1.07;0.70;;;17.20;77.60;;;;;;10400943;28;20240;-59
2021/10/07 12:23:08;;;;;;;1.63;0.77;;;17.30;77.80;;;;;;10411306;28;20185;-60
2021/10/07 12:28:32;;;;;;;3.23;1.13;;;17.20;77.80;;;;;;10444846;23;20228;-66
2021/10/07 12:33:55;;;;;;;1.97;1.07;;;17.30;77.90;;;;;;10449365;28;20217;-66
2021/10/07 12:39:24;;;;;;;3.07;0.90;;;17.30;77.90;;;;;;10448246;28;20224;-66
2021/10/07 12:44:53;;;;;;;2.20;1.23;;;17.20;77.80;;;;;;10408334;28;20217;-66
2021/10/07 12:50:17;;;;;;;3.67;1.37;;;17.30;77.80;;;;;;10404789;28;20206;-66
2021/10/07 12:55:39;;;;;;;2.57;1.27;;;17.30;77.80;;;;;;10407663;28;20229;-66
2021/10/07 13:01:13;;;;;;;2.03;1.10;;;17.30;77.70;;;;;;10384007;28;20724;-66
2021/10/07 13:06:35;;;;;;;2.93;1.63;;;17.30;77.70;;;;;;10397988;28;20209;-66
2021/10/07 13:11:57;;;;;;;2.60;1.30;;;17.20;77.60;;;;;;10389109;28;20221;-66
2021/10/07 13:17:20;;;;;;;1.50;1.30;;;17.20;77.70;;;;;;10415444;28;20226;-66
2021/10/07 13:22:43;;;;;;;2.23;1.20;;;17.30;77.80;;;;;;10405598;28;20196;-67
2021/10/07 13:28:05;;;;;;;2.00;1.40;;;17.20;77.70;;;;;;10403710;28;20236;-66
2021/10/07 13:33:29;;;;;;;3.13;1.67;;;17.30;77.80;;;;;;10403142;28;20229;-66
2021/10/07 13:38:51;;;;;;;4.07;1.20;;;17.20;77.90;;;;;;10403427;28;20224;-66
2021/10/07 13:44:13;;;;;;;2.77;1.50;;;17.30;78.00;;;;;;10403662;28;20205;-66
2021/10/07 13:49:37;;;;;;;1.90;1.10;;;17.20;77.90;;;;;;10405402;28;20688;-66
2021/10/07 13:54:59;;;;;;;1.97;0.97;;;17.30;78.00;;;;;;10407952;28;20228;-66
2021/10/07 14:00:21;;;;;;;2.90;1.20;;;17.30;78.10;;;;;;10429712;28;20200;-65
2021/10/07 14:05:47;;;;;;;2.33;1.10;;;17.20;78.20;;;;;;10413437;28;20217;-66
2021/10/07 14:11:09;;;;;;;2.50;1.10;;;17.20;78.20;;;;;;10417205;28;20205;-67
2021/10/07 14:16:31;;;;;;;2.57;1.40;;;17.20;78.20;;;;;;10420050;28;20225;-66
2021/10/07 14:21:55;;;;;;;3.97;1.40;;;17.20;78.10;;;;;;10413251;28;20198;-66
2021/10/07 14:27:17;;;;;;;1.97;1.47;;;17.20;78.10;;;;;;10413672;28;20218;-66
2021/10/07 14:32:39;;;;;;;2.33;1.27;;;17.20;78.20;;;;;;10373103;28;20217;-66
2021/10/07 14:38:03;;;;;;;1.77;1.20;;;17.20;78.20;;;;;;10372855;28;20585;-66
2021/10/07 14:43:25;;;;;;;1.10;0.80;;;17.20;78.10;;;;;;10372945;28;20195;-67
2021/10/07 14:48:47;;;;;;;2.03;1.20;;;17.20;78.20;;;;;;10402573;28;20221;-67
2021/10/07 14:54:10;;;;;;;3.07;1.23;;;17.20;78.10;;;;;;10415175;28;20589;-66
2021/10/07 14:59:34;;;;;;;1.30;0.90;;;17.20;78.10;;;;;;10415392;28;20277;-67
2021/10/07 15:04:56;;;;;;;1.10;0.87;;;17.20;78.10;;;;;;10415645;28;20700;-66
2021/10/07 15:10:19;;;;;;;2.63;1.30;;;17.20;78.10;;;;;;10408176;28;20222;-67
2021/10/07 15:15:42;;;;;;;1.23;0.80;;;17.20;78.20;;;;;;10415348;28;20209;-67
2021/10/07 15:21:05;;;;;;;1.67;0.87;;;17.20;78.10;;;;;;10415202;28;20191;-67
2021/10/07 15:26:28;;;;;;;2.67;1.43;;;17.20;78.10;;;;;;10410862;28;20272;-66
2021/10/07 15:31:50;;;;;;;2.63;1.27;;;17.20;78.20;;;;;;10412267;28;20566;-66
2021/10/07 15:37:12;;;;;;;2.00;0.93;;;17.20;78.20;;;;;;10415451;28;20688;-67
2021/10/07 15:42:36;;;;;;;3.20;1.20;;;17.20;78.20;;;;;;10413907;28;20248;-66
2021/10/07 15:47:58;;;;;;;1.87;1.00;;;17.20;78.20;;;;;;10414243;28;20225;-67
2021/10/07 15:53:20;;;;;;;1.97;1.00;;;17.20;78.20;;;;;;10412932;28;20221;-67
2021/10/07 15:58:46;;;;;;;2.97;0.90;;;17.20;78.20;;;;;;10413225;28;20218;-67
2021/10/07 16:04:08;;;;;;;1.93;1.10;;;17.20;78.20;;;;;;10413763;28;20620;-67
2021/10/07 16:09:30;;;;;;;1.97;1.20;;;17.20;78.90;;;;;;10411624;28;20198;-66
2021/10/07 16:14:54;;;;;;;1.40;0.87;;;17.20;78.30;;;;;;10378668;28;20218;-67
2021/10/07 16:20:16;;;;;;;2.57;0.90;;;17.20;78.40;;;;;;10379587;28;20197;-67
2021/10/07 16:25:38;;;;;;;1.20;0.90;;;17.20;78.30;;;;;;10412159;28;20585;-67
2021/10/07 16:31:03;;;;;;;1.87;1.03;;;17.20;78.30;;;;;;10412226;28;20570;-67
2021/10/07 16:36:26;;;;;;;2.10;1.07;;;17.20;78.20;;;;;;10408640;28;20232;-67
2021/10/07 16:41:49;;;;;;;2.87;1.40;;;17.20;78.10;;;;;;10411507;28;20197;-67
2021/10/07 16:47:12;;;;;;;1.43;0.90;;;17.20;78.70;;;;;;10412312;28;20218;-67
2021/10/07 16:52:34;;;;;;;2.53;1.23;;;17.20;78.00;;;;;;10410508;28;20225;-66
2021/10/07 16:57:56;;;;;;;1.02;0.93;;;17.20;77.80;;;;;;10409130;28;20793;-66
2021/10/07 17:03:20;;;;;;;1.27;0.90;;;17.30;77.40;;;;;;10411285;28;20190;-66
2021/10/07 17:08:42;;;;;;;2.57;1.37;;;17.30;77.20;;;;;;10410938;28;20210;-66
2021/10/07 17:14:04;;;;;;;2.17;1.20;;;17.20;77.40;;;;;;10405250;28;20221;-66
2021/10/07 17:19:28;;;;;;;1.73;1.23;;;17.20;77.50;;;;;;10410742;28;20802;-66
2021/10/07 17:24:50;;;;;;;2.50;1.30;;;17.20;77.50;;;;;;10405510;28;20608;-66
2021/10/07 17:30:13;;;;;;;1.93;1.30;;;17.20;77.60;;;;;;10409650;28;20202;-66
2021/10/07 17:35:37;;;;;;;1.87;1.20;;;17.20;77.50;;;;;;10405982;28;20228;-66
2021/10/07 17:41:00;;;;;;;2.07;1.17;;;17.20;77.50;;;;;;10404056;28;20226;-66
2021/10/07 17:46:25;;;;;;;1.80;1.40;;;17.20;77.50;;;;;;10406814;28;20696;-66
2021/10/07 17:51:49;;;;;;;2.87;1.47;;;17.20;77.40;;;;;;10407052;28;20276;-66
2021/10/07 17:57:13;;;;;;;2.08;1.58;;;17.10;77.60;;;;;;10408872;28;20820;-68
2021/10/07 18:02:35;;;;;;;2.07;1.50;;;17.50;76.00;;;;;;10408454;28;20202;-68
2021/10/07 18:07:58;;;;;;;1.40;1.30;;;17.40;76.70;;;;;;10404798;28;20213;-68
2021/10/07 18:13:20;;;;;;;1.90;1.27;;;17.30;77.00;;;;;;10400122;28;20225;-68
2021/10/07 18:18:47;;;;;;;2.17;1.40;;;17.20;77.10;;;;;;10406982;28;20222;-68
2021/10/07 18:24:13;;;;;;;3.00;1.20;;;17.20;77.10;;;;;;10407900;28;20665;-68
2021/10/07 18:29:36;;;;;;;2.13;1.60;;;17.20;77.20;;;;;;10459870;23;21255;-64
2021/10/07 18:34:58;;;;;;;1.77;1.27;;;17.20;77.20;;;;;;10465874;28;20228;-64
2021/10/07 18:40:21;;;;;;;1.30;1.20;;;17.20;77.30;;;;;;10426602;28;20198;-62
2021/10/07 18:45:44;;;;;;;2.60;1.50;;;17.20;77.30;;;;;;10432854;28;20216;-67
2021/10/07 18:51:07;;;;;;;1.60;1.30;;;17.20;77.30;;;;;;10433691;28;20210;-64
2021/10/07 18:56:32;;;;;;;2.70;1.40;;;17.20;77.30;;;;;;10435150;28;20284;-65
2021/10/07 19:01:54;;;;;;;1.77;1.40;;;17.20;77.40;;;;;;10435627;28;20197;-65
2021/10/07 19:07:17;;;;;;;1.60;1.50;;;17.20;77.40;;;;;;10435635;28;20216;-65
2021/10/07 19:12:43;;;;;;;1.83;1.70;;;17.20;77.40;;;;;;10433354;28;20218;-64
2021/10/07 19:18:05;;;;;;;2.37;1.40;;;17.20;77.90;;;;;;10426785;28;20349;-64
2021/10/07 19:23:27;;;;;;;2.17;1.30;;;17.20;77.40;;;;;;10437973;28;20201;-65
2021/10/07 19:28:51;;;;;;;2.70;1.70;;;17.20;77.40;;;;;;10432982;28;20228;-64
2021/10/07 19:34:18;;;;;;;2.17;1.63;;;17.20;77.40;;;;;;10432121;28;20213;-62
2021/10/07 19:39:41;;;;;;;2.77;1.70;;;17.20;77.50;;;;;;10434299;28;20692;-64
2021/10/07 19:45:06;;;;;;;2.53;1.80;;;17.20;77.50;;;;;;10434680;28;20200;-65
2021/10/07 19:50:28;;;;;;;2.33;1.83;;;17.20;77.50;;;;;;10434808;28;20193;-64
2021/10/07 19:55:50;;;;;;;1.67;1.47;;;17.20;77.50;;;;;;10439417;28;20354;-65
2021/10/07 20:01:14;;;;;;;2.33;1.60;;;17.20;77.50;;;;;;10436301;28;20197;-65
2021/10/07 20:06:37;;;;;;;1.87;1.53;;;17.20;77.40;;;;;;10434552;28;20213;-64
2021/10/07 20:11:59;;;;;;;1.90;1.30;;;17.20;77.40;;;;;;10432613;28;20229;-65
2021/10/07 20:17:23;;;;;;;2.23;1.60;;;17.20;77.50;;;;;;10433300;28;20213;-65
2021/10/07 20:22:45;;;;;;;2.30;1.67;;;17.10;77.40;;;;;;10426021;28;20189;-65
2021/10/07 20:28:07;;;;;;;2.00;1.73;;;17.10;77.40;;;;;;10443627;28;20217;-65
2021/10/07 20:33:50;;;;;;;2.20;1.77;;;17.20;77.40;;;;;;10453123;28;20321;-65
2021/10/07 20:39:15;;;;;;;2.10;1.53;;;17.20;77.40;;;;;;10419557;28;20296;-63
2021/10/07 20:44:38;;;;;;;4.40;1.77;;;17.20;77.40;;;;;;10441002;28;20201;-65
2021/10/07 20:50:02;;;;;;;2.37;1.80;;;17.10;77.30;;;;;;10451958;28;20232;-64
2021/10/07 20:55:24;;;;;;;1.53;1.43;;;17.10;77.40;;;;;;10452955;28;20217;-65
2021/10/07 21:00:46;;;;;;;2.40;1.70;;;17.10;77.30;;;;;;10451535;28;20193;-65
2021/10/07 21:06:10;;;;;;;2.27;1.60;;;17.10;77.40;;;;;;10451303;28;20228;-65
2021/10/07 21:11:32;;;;;;;1.63;1.47;;;17.10;77.40;;;;;;10452103;28;20201;-65
2021/10/07 21:16:54;;;;;;;1.93;1.73;;;17.10;77.40;;;;;;10429164;28;20209;-65
2021/10/07 21:22:17;;;;;;;2.30;1.77;;;17.20;77.40;;;;;;10438276;28;20201;-65
2021/10/07 21:27:39;;;;;;;2.17;1.60;;;17.10;77.30;;;;;;10410857;28;20704;-65
2021/10/07 21:33:03;;;;;;;1.77;1.60;;;17.20;77.40;;;;;;10409497;28;20217;-65
2021/10/07 21:38:27;;;;;;;2.77;1.63;;;17.10;77.40;;;;;;10430505;28;20221;-64
2021/10/07 21:43:49;;;;;;;2.43;1.80;;;17.20;77.40;;;;;;10409789;28;20204;-65
2021/10/07 21:49:11;;;;;;;1.60;1.50;;;17.10;77.40;;;;;;10413415;28;20217;-65
2021/10/07 21:54:35;;;;;;;1.43;1.23;;;17.10;77.40;;;;;;10428918;28;20223;-65
2021/10/07 21:59:57;;;;;;;1.70;1.60;;;17.10;77.50;;;;;;10446762;28;20228;-65
2021/10/07 22:05:22;;;;;;;2.13;1.60;;;17.10;77.40;;;;;;10409765;28;20197;-64
2021/10/07 22:10:46;;;;;;;2.43;1.47;;;17.10;77.40;;;;;;10409095;28;20189;-65
2021/10/07 22:16:08;;;;;;;1.73;1.37;;;17.20;77.50;;;;;;10431971;28;20795;-65
2021/10/07 22:21:30;;;;;;;1.90;1.30;;;17.10;77.20;;;;;;10420829;28;20692;-65
2021/10/07 22:26:54;;;;;;;2.20;1.40;;;17.10;77.40;;;;;;10417974;28;20237;-65
2021/10/07 22:32:16;;;;;;;2.00;1.40;;;17.10;77.40;;;;;;10436586;28;20229;-63
2021/10/07 22:37:39;;;;;;;1.77;1.50;;;17.10;77.40;;;;;;10424881;28;20232;-65
2021/10/07 22:43:04;;;;;;;2.67;1.83;;;17.10;77.40;;;;;;10422987;28;20684;-65
2021/10/07 22:48:26;;;;;;;2.00;1.80;;;17.10;77.30;;;;;;10440834;28;20586;-65
2021/10/07 22:53:48;;;;;;;3.20;1.80;;;17.10;77.30;;;;;;10458153;28;20213;-64
2021/10/07 22:59:12;;;;;;;1.93;1.73;;;17.10;77.20;;;;;;10448621;28;20695;-64
2021/10/07 23:04:35;;;;;;;1.70;1.50;;;17.10;77.30;;;;;;10443794;28;20294;-65
2021/10/07 23:09:57;;;;;;;2.27;1.90;;;17.10;77.20;;;;;;10450841;28;20221;-65
2021/10/07 23:15:20;;;;;;;1.90;1.70;;;17.10;77.10;;;;;;10456528;28;20217;-65
2021/10/07 23:20:43;;;;;;;2.40;1.70;;;17.10;77.10;;;;;;10415245;28;20205;-65
2021/10/07 23:26:05;;;;;;;1.87;1.50;;;17.10;77.10;;;;;;10417298;28;20218;-65
2021/10/07 23:31:28;;;;;;;1.83;1.43;;;17.10;77.00;;;;;;10412819;28;20707;-65
2021/10/07 23:36:50;;;;;;;2.20;1.63;;;17.10;76.80;;;;;;10415678;28;20252;-65
2021/10/07 23:42:12;;;;;;;3.53;1.53;;;17.10;76.90;;;;;;10416424;28;20197;-65
2021/10/07 23:47:36;;;;;;;1.93;1.40;;;17.10;76.80;;;;;;10418016;28;20224;-64
2021/10/07 23:52:58;;;;;;;2.03;1.30;;;17.10;76.60;;;;;;10413200;28;20217;-65
2021/10/07 23:58:20;;;;;;;3.33;1.47;;;17.10;76.60;;;;;;10417351;28;20213;-65
